Impacts METAR Board
IDs:

KBAZ - New Braunfels Muni, TX, US

Updated at: 1200 UTC 20 Oct 2021
Potential Impact None Slight Moderate High
Time 20/00Z 20/01Z 20/02Z 20/03Z 20/04Z 20/05Z 20/06Z 20/07Z 20/08Z 20/09Z 20/10Z 20/11Z 20/12Z
Temp77 73 71 69 69 68 67 66 62 63 64 66 67
Dewpt62 63 64 64 64 64 64 64 61 62 63 65 65
Altim29.97 29.98 30.00 30.02 30.04 30.05 30.05 30.05 30.05 30.04 30.05 30.06 30.07
VIS10 10 10 10 10 10 10 10 2 9 7 9 7
CIG-- -- -- -- -- -- -- -- -- 20 -- 32 9
CoverCLRCLRCLRCLRCLRCLRCLRCLRCLRBKNSCTOVCOVC
FltCatVFRVFRVFRVFRVFRVFRVFRVFRIFRMVFRVFRVFRIFR
WX----------------BR--------
WDir1401301401401501601600340340000
WSpd8 6 6 6 7 6 6 0 4 3 0 0 0
WGst-- -- -- -- -- -- -- -- -- -- -- -- --
Raw hourly METARs
KBAZ 192351Z AUTO 14008KT 10SM CLR 25/17 A2997 RMK AO2 SLP142 T02500167 10294 20250 55000
KBAZ 200051Z AUTO 13006KT 10SM CLR 23/17 A2998 RMK AO2 SLP149 T02280172
KBAZ 200151Z AUTO 14006KT 10SM CLR 22/18 A3000 RMK AO2 SLP155 T02170178
KBAZ 200251Z AUTO 14006KT 10SM CLR 21/18 A3002 RMK AO2 SLP159 T02060178 51016
KBAZ 200351Z AUTO 15007KT 10SM CLR 21/18 A3004 RMK AO2 SLP164 T02060178
KBAZ 200451Z AUTO 16006KT 10SM CLR 20/18 A3005 RMK AO2 SLP168 T02000178 402940128
KBAZ 200551Z AUTO 16006KT 10SM CLR 19/18 A3005 RMK AO2 SLP168 T01940178 10250 20194 50009
KBAZ 200651Z AUTO 00000KT 10SM CLR 19/18 A3005 RMK AO2 SLP167 T01890178
KBAZ 200802Z AUTO 34004KT 2SM BR CLR 17/16 A3005 RMK AO2 T01670161
KBAZ 200851Z AUTO 34003KT 9SM BKN020 17/17 A3004 RMK AO2 SLP166 T01720167 56002
KBAZ 200951Z AUTO 00000KT 7SM SCT022 SCT029 18/17 A3005 RMK AO2 SLP168 T01780172
KBAZ 201051Z AUTO 00000KT 9SM OVC032 19/18 A3006 RMK AO2 SLP171 T01890183
KBAZ 201151Z 00000KT 7SM BKN009 OVC036 19/18 A3007 RMK AO2 SLP176 T01940183 10194 20167 53007